Stations météo

Publicité
Uccle, Belgique (6447): Température de l'air & dewpoint: 12.01.2018 06:00:00 - 18.01.2018 06:00:00 (CET)Uccle, Belgique (6447): Vitesse du vent & gusts: 12.01.2018 06:00:00 - 18.01.2018 06:00:00 (CET)Uccle, Belgique (6447): Direction du vent: 12.01.2018 06:00:00 - 18.01.2018 06:00:00 (CET)Uccle, Belgique (6447): reduced air pressure: 12.01.2018 06:00:00 - 18.01.2018 06:00:00 (CET)Uccle, Belgique (6447): Ensoleillement: 12.01.2018 06:00:00 - 18.01.2018 06:00:00 (CET)Uccle, Belgique (6447): Quantités de précipitations: 12.01.2018 06:00:00 - 18.01.2018 06:00:00 (CET)
Date & Time tt [°C] td [°C] ff [km/h] ff [knt] fx [km/h] fx [knt] dd ppp [hPa] sd [min] rr [mm]
18.01.2018 06:00:00 6,7 6,1 44 24 80 43 SSW 994,8 0 0,4
18.01.2018 05:00:00 5,1 4,4 31 17 77 42 SSW 997,2 0 0,8
18.01.2018 04:00:00 4,4 3,6 34 19 63 34 S 999,3 0 1,6
18.01.2018 03:00:00 4,4 3,5 27 14 51 27 S 1002,5 0 1,0
18.01.2018 02:00:00 4,6 2,5 24 13 50 27 SSW 1004,9 0 0,1
18.01.2018 01:00:00 4,9 2,4 22 12 41 22 SSW 1007,0 0 0,0
18.01.2018 00:00:00 4,9 1,8 22 12 40 22 SSW 1008,0 0 0,0
17.01.2018 23:00:00 4,5 0,9 16 8 35 19 SW 1008,9 0 0,0
17.01.2018 22:00:00 4,4 0,6 20 11 33 18 SW 1009,3 0 0,0
17.01.2018 21:00:00 4,5 0,4 11 6 32 18 SW 1009,1 0 0,0
17.01.2018 20:00:00 5,0 0,6 13 7 32 18 SW 1009,2 0 0,0
17.01.2018 19:00:00 5,1 0,5 14 8 37 20 WSW 1009,3 0 0,0
17.01.2018 18:00:00 5,3 -0,3 13 7 34 19 SW 1009,0 0 0,0
17.01.2018 17:00:00 5,5 -1,1 19 10 44 24 WSW 1008,9 8 0,0
17.01.2018 16:00:00 5,5 -0,1 20 11 40 21 WSW 1007,9 0 0,0
17.01.2018 15:00:00 5,6 -0,7 26 14 54 29 W 1006,9 1 0,0
17.01.2018 14:00:00 4,7 0,4 25 14 48 26 WSW 1006,2 0 0,0
17.01.2018 13:00:00 4,6 0,2 22 12 49 26 W 1005,4 0 0,0
17.01.2018 12:00:00 3,7 0,0 26 14 54 29 WSW 1004,7 0 0,1
17.01.2018 11:00:00 3,0 -0,7 26 14 50 27 WSW 1003,9 0 0,1
17.01.2018 10:00:00 2,9 -0,8 19 11 49 27 WSW 1002,7 0 0,1
17.01.2018 09:00:00 2,5 -0,9 21 11 46 25 WSW 1001,5 0 0,0
17.01.2018 08:00:00 2,5 -1,5 19 11 44 24 WSW 1000,3 0 0,0
17.01.2018 07:00:00 2,5 -1,5 22 12 47 26 W 999,0 0 0,0
17.01.2018 06:00:00 2,9 -1,1 24 13 49 27 WSW 997,8 0 0,0
17.01.2018 05:00:00 3,2 -0,4 31 17 64 34 W 997,0 0 0,1
17.01.2018 04:00:00 3,8 0,0 23 13 49 26 WSW 996,0 0 0,0
17.01.2018 03:00:00 - - - - - - - - - -
17.01.2018 02:00:00 - - - - - - - - - -
17.01.2018 01:00:00 3,3 1,9 18 10 41 22 SW 994,9 0 0,0
17.01.2018 00:00:00 3,8 1,5 23 12 48 26 SW 994,5 0 0,0
16.01.2018 23:00:00 4,5 1,1 24 13 45 25 SW 994,5 0 0,0
16.01.2018 22:00:00 4,8 1,2 23 12 39 21 SSW 995,0 0 0,0
16.01.2018 21:00:00 4,9 0,0 16 9 35 19 SSW 995,5 0 0,0
16.01.2018 20:00:00 4,9 -0,1 14 8 32 18 SW 995,8 0 0,0
16.01.2018 19:00:00 5,3 0,3 11 6 33 18 WSW 995,9 0 0,0
16.01.2018 18:00:00 5,8 0,4 19 10 37 20 WSW 996,4 0 0,0
16.01.2018 17:00:00 6,5 0,6 14 7 49 26 WSW 996,2 20 0,0
16.01.2018 16:00:00 7,2 0,7 23 13 58 31 WSW 995,9 28 0,0
16.01.2018 15:00:00 7,5 0,1 21 11 51 28 W 995,8 33 0,0
16.01.2018 14:00:00 7,2 0,2 26 14 69 38 W 996,0 24 0,0
16.01.2018 13:00:00 6,6 1,7 29 16 52 28 W 996,3 1 0,0
16.01.2018 12:00:00 6,8 2,6 23 13 49 27 WSW 996,2 3 0,0
16.01.2018 11:00:00 6,5 3,0 23 12 45 24 WSW 995,5 2 0,0
16.01.2018 10:00:00 6,4 4,0 23 12 46 25 WSW 994,7 3 0,0
16.01.2018 09:00:00 6,3 4,4 16 9 39 21 WSW 993,9 0 0,0
16.01.2018 08:00:00 5,9 4,7 15 8 32 17 SW 993,4 0 0,0
16.01.2018 07:00:00 5,7 4,6 22 12 42 23 SW 992,9 0 0,2
16.01.2018 06:00:00 6,2 4,8 20 11 38 21 SW 993,3 0 0,0
16.01.2018 05:00:00 6,2 4,4 18 10 44 24 SW 993,8 0 0,0
16.01.2018 04:00:00 6,2 4,7 16 9 46 25 SW 994,2 0 0,1
16.01.2018 03:00:00 6,4 4,8 24 13 43 23 SW 994,4 0 0,0
16.01.2018 02:00:00 6,3 4,8 14 8 33 18 SW 995,3 0 0,0
16.01.2018 01:00:00 6,2 5,0 18 10 37 20 WSW 996,4 0 0,0
16.01.2018 00:00:00 6,0 5,2 14 8 30 16 SW 996,0 0 0,1
15.01.2018 23:00:00 6,2 5,4 14 7 52 28 WSW 995,3 0 2,1
15.01.2018 22:00:00 7,7 7,2 22 12 40 21 WSW 994,5 0 1,4
15.01.2018 21:00:00 7,8 7,3 13 7 46 25 SW 993,8 0 0,7
15.01.2018 20:00:00 7,4 6,8 24 13 58 31 SSW 993,5 0 1,4
15.01.2018 19:00:00 6,7 6,0 29 16 62 34 SSW 993,7 0 0,1
15.01.2018 18:00:00 5,7 4,9 33 18 70 38 S 994,8 0 0,8
15.01.2018 17:00:00 5,2 4,2 38 20 71 39 S 996,1 0 2,3
15.01.2018 16:00:00 5,6 4,5 39 21 74 40 S 997,9 0 1,6
15.01.2018 15:00:00 5,8 4,7 34 18 61 33 S 999,6 0 0,6
15.01.2018 14:00:00 5,8 4,6 32 17 62 33 S 1002,0 0 0,4
15.01.2018 13:00:00 6,1 4,4 29 16 61 33 S 1003,6 0 0,4
15.01.2018 12:00:00 6,6 3,9 34 19 66 36 S 1006,4 0 0,0
15.01.2018 11:00:00 6,2 4,1 31 17 58 31 S 1007,9 0 0,0
15.01.2018 10:00:00 5,6 4,0 28 15 52 28 S 1009,4 0 0,0
15.01.2018 09:00:00 4,6 3,8 22 12 54 29 S 1010,2 0 0,0
15.01.2018 08:00:00 3,8 3,2 23 13 45 24 S 1011,3 0 0,0
15.01.2018 07:00:00 3,1 2,3 18 10 45 25 SSW 1012,8 0 0,0
15.01.2018 06:00:00 3,7 2,4 19 10 41 22 SSW 1013,3 0 0,0
15.01.2018 05:00:00 4,1 2,8 17 9 35 19 SSW 1013,9 0 0,0
15.01.2018 04:00:00 4,5 2,8 16 9 32 17 S 1014,6 0 0,0
15.01.2018 03:00:00 4,3 2,7 15 8 25 13 S 1015,5 0 0,0
15.01.2018 02:00:00 4,0 2,1 16 8 22 12 S 1016,0 0 0,0
15.01.2018 01:00:00 3,4 1,7 14 8 28 15 S 1016,8 0 0,0
15.01.2018 00:00:00 2,7 0,9 13 7 22 12 SSE 1017,3 0 0,0
14.01.2018 23:00:00 3,3 1,1 16 8 23 12 SSE 1017,7 0 0,0
14.01.2018 22:00:00 3,5 1,2 10 6 16 9 S 1018,2 0 0,0
14.01.2018 21:00:00 3,8 1,3 11 6 16 8 S 1018,3 0 0,0
14.01.2018 20:00:00 4,2 1,7 10 6 16 9 S 1017,9 0 0,0
14.01.2018 19:00:00 4,8 2,1 11 6 15 8 S 1018,1 0 0,0
14.01.2018 18:00:00 4,6 2,2 10 5 12 6 ESE 1017,9 0 0,0
14.01.2018 17:00:00 5,2 1,6 6 3 12 6 ESE 1018,0 0 0,0
14.01.2018 16:00:00 6,4 1,8 10 5 20 11 SE 1018,0 21 0,0
14.01.2018 15:00:00 6,7 1,7 11 6 21 11 SSE 1017,9 58 0,0
14.01.2018 14:00:00 6,2 1,7 13 7 24 13 ESE 1018,2 60 0,0
14.01.2018 13:00:00 5,4 1,8 7 4 23 13 ESE 1018,8 60 0,0
14.01.2018 12:00:00 4,4 1,5 11 6 19 11 E 1019,1 60 0,0
14.01.2018 11:00:00 2,7 1,7 11 6 18 10 E 1019,3 60 0,0
14.01.2018 10:00:00 0,8 0,3 11 6 19 11 E 1019,2 38 0,0
14.01.2018 09:00:00 0,4 -0,3 11 6 21 11 E 1019,0 0 0,0
14.01.2018 08:00:00 0,7 -0,1 12 7 23 12 E 1018,8 0 0,0
14.01.2018 07:00:00 0,9 0,1 11 6 23 12 E 1018,6 0 0,0
14.01.2018 06:00:00 1,1 0,3 12 6 22 12 E 1018,4 0 0,0
14.01.2018 05:00:00 1,2 0,3 13 7 25 14 E 1018,6 0 0,0
14.01.2018 04:00:00 1,4 0,4 15 8 24 13 ENE 1018,9 0 0,0
14.01.2018 03:00:00 1,5 0,4 11 6 19 10 ENE 1019,2 0 0,0
14.01.2018 02:00:00 2,2 0,7 10 6 18 10 ENE 1019,2 0 0,0
14.01.2018 01:00:00 2,6 0,6 11 6 17 9 ENE 1019,7 0 0,0
14.01.2018 00:00:00 3,7 1,3 9 5 18 10 ENE 1020,1 0 0,0
13.01.2018 23:00:00 3,5 1,3 8 4 15 8 ENE 1020,4 0 0,0
13.01.2018 22:00:00 3,4 1,2 9 5 18 10 ENE 1020,7 0 0,0
13.01.2018 21:00:00 3,4 1,2 9 5 19 10 ENE 1021,0 0 0,0
13.01.2018 20:00:00 3,0 1,2 8 4 18 10 E 1021,4 0 0,0
13.01.2018 19:00:00 3,5 1,5 7 4 19 10 E 1021,4 0 0,0
13.01.2018 18:00:00 - - - - - - - - - -
13.01.2018 17:00:00 4,1 1,6 7 4 18 10 ESE 1021,4 - -
13.01.2018 16:00:00 4,6 2,0 7 4 26 14 ESE 1021,5 23 0,0
13.01.2018 15:00:00 4,7 2,8 12 6 22 12 ESE 1021,9 0 0,0
13.01.2018 14:00:00 4,2 3,0 11 6 22 12 E 1022,5 0 0,0
13.01.2018 13:00:00 3,9 3,9 7 4 16 8 ESE 1023,4 0 0,0
13.01.2018 12:00:00 3,3 3,3 8 4 15 8 E 1024,3 0 0,0
13.01.2018 11:00:00 2,8 2,8 7 4 16 9 ESE 1024,3 0 0,0
13.01.2018 10:00:00 2,8 2,8 6 4 13 7 ESE 1024,2 0 0,0
13.01.2018 09:00:00 2,8 2,8 9 5 13 7 ESE 1024,1 0 0,0
13.01.2018 08:00:00 2,9 2,9 6 3 12 6 E 1024,1 0 0,0
13.01.2018 07:00:00 2,9 2,9 4 2 12 6 SE 1024,3 0 0,0
13.01.2018 06:00:00 2,6 2,4 7 4 18 10 ESE 1024,4 0 0,0
13.01.2018 05:00:00 2,3 2,1 8 5 17 9 ESE 1024,8 0 0,0
13.01.2018 04:00:00 2,3 2,0 7 4 16 9 E 1025,1 0 0,0
13.01.2018 03:00:00 3,0 2,6 11 6 18 10 E 1025,2 0 0,0
13.01.2018 02:00:00 3,3 2,8 9 5 13 7 E 1025,3 0 0,0
13.01.2018 01:00:00 3,4 2,7 7 4 11 6 E 1025,6 0 0,0
13.01.2018 00:00:00 4,7 3,8 5 3 9 5 ESE 1026,2 0 0,0
12.01.2018 23:00:00 5,1 4,1 6 3 9 5 E 1026,1 0 0,0
12.01.2018 22:00:00 5,4 4,3 4 2 10 5 E 1026,3 0 0,0
12.01.2018 21:00:00 5,8 4,7 4 2 10 5 E 1026,3 0 0,0
12.01.2018 20:00:00 5,9 4,8 6 3 11 6 E 1026,3 0 0,0
12.01.2018 19:00:00 6,0 4,8 7 4 11 6 E 1026,0 0 0,0
12.01.2018 18:00:00 6,2 4,9 6 3 11 6 E 1026,0 0 0,0
12.01.2018 17:00:00 6,6 5,3 5 3 9 5 E 1025,9 0 0,0
12.01.2018 16:00:00 6,9 5,7 4 2 6 4 NE 1025,9 0 0,0
12.01.2018 15:00:00 6,8 5,7 4 2 8 4 WSW 1025,8 0 0,0
12.01.2018 14:00:00 6,8 5,8 4 2 8 5 W 1025,8 0 0,0
12.01.2018 13:00:00 6,6 5,7 4 2 7 4 WSW 1026,2 0 0,0
12.01.2018 12:00:00 6,5 5,7 4 2 6 3 WSW 1026,5 0 0,0
12.01.2018 11:00:00 6,4 5,6 4 2 6 3 S 1026,6 0 0,0
12.01.2018 10:00:00 6,0 5,4 0 0 6 3 N 1026,4 0 0,0
12.01.2018 09:00:00 6,0 5,4 5 3 12 7 NW 1026,1 0 0,0
12.01.2018 08:00:00 5,9 5,5 6 3 12 7 N 1025,6 0 0,0
12.01.2018 07:00:00 5,9 5,5 7 4 9 5 NW 1025,2 0 0,0
12.01.2018 06:00:00 5,8 5,4 5 3 11 6 N 1025,0 0 0,0

tt = Température de l'air
td = dewpoint
ff = Vitesse du vent
fx = gusts
dd = Direction du vent
ppp = reduced air pressure
sd = Ensoleillement
rr = Quantités de précipitations

stations d'obs. à proximité